sensor_id;sensor_type;location;lat;lon;timestamp;pressure;altitude;pressure_sealevel;temperature;humidity
1480;BME280;732;51.698;4.886;2023-03-04T00:02:03;102784.78;;;3.01;60.51
1480;BME280;732;51.698;4.886;2023-03-04T00:04:32;102801.72;;;3.31;60.27
1480;BME280;732;51.698;4.886;2023-03-04T00:07:01;102769.53;;;2.89;60.59
1480;BME280;732;51.698;4.886;2023-03-04T00:09:31;102807.47;;;3.07;61.06
1480;BME280;732;51.698;4.886;2023-03-04T00:11:59;102814.97;;;3.15;60.75
1480;BME280;732;51.698;4.886;2023-03-04T00:14:28;102784.94;;;2.82;61.18
1480;BME280;732;51.698;4.886;2023-03-04T00:16:56;102789.47;;;2.96;60.59
1480;BME280;732;51.698;4.886;2023-03-04T00:19:25;102807.16;;;2.79;61.70
1480;BME280;732;51.698;4.886;2023-03-04T00:21:53;102810.06;;;2.75;62.39
1480;BME280;732;51.698;4.886;2023-03-04T00:24:22;102812.88;;;2.72;62.16
1480;BME280;732;51.698;4.886;2023-03-04T00:26:52;102816.47;;;2.71;62.52
1480;BME280;732;51.698;4.886;2023-03-04T00:29:20;102806.84;;;2.86;62.18
1480;BME280;732;51.698;4.886;2023-03-04T00:31:49;102816.31;;;2.90;62.00
1480;BME280;732;51.698;4.886;2023-03-04T00:34:17;102806.75;;;2.87;61.55
1480;BME280;732;51.698;4.886;2023-03-04T00:36:46;102789.88;;;2.72;62.28
1480;BME280;732;51.698;4.886;2023-03-04T00:39:16;102774.13;;;2.53;62.30
1480;BME280;732;51.698;4.886;2023-03-04T00:41:45;102793.78;;;2.65;61.66
1480;BME280;732;51.698;4.886;2023-03-04T00:44:15;102797.53;;;2.61;61.48
1480;BME280;732;51.698;4.886;2023-03-04T00:46:43;102807.63;;;2.54;61.43
1480;BME280;732;51.698;4.886;2023-03-04T00:49:12;102803.72;;;2.44;62.26
1480;BME280;732;51.698;4.886;2023-03-04T00:51:40;102805.81;;;2.55;61.50
1480;BME280;732;51.698;4.886;2023-03-04T00:54:08;102802.94;;;2.59;61.85
1480;BME280;732;51.698;4.886;2023-03-04T00:56:37;102804.06;;;2.71;60.90
1480;BME280;732;51.698;4.886;2023-03-04T00:59:06;102793.53;;;2.70;60.78
1480;BME280;732;51.698;4.886;2023-03-04T01:01:36;102803.50;;;2.82;60.69
1480;BME280;732;51.698;4.886;2023-03-04T01:04:04;102811.91;;;2.73;61.72
1480;BME280;732;51.698;4.886;2023-03-04T01:06:32;102809.78;;;2.63;62.06
1480;BME280;732;51.698;4.886;2023-03-04T01:09:01;102805.16;;;2.67;61.83
1480;BME280;732;51.698;4.886;2023-03-04T01:11:29;102784.44;;;2.42;61.76
1480;BME280;732;51.698;4.886;2023-03-04T01:13:58;102812.28;;;2.49;61.62
1480;BME280;732;51.698;4.886;2023-03-04T01:16:26;102790.97;;;2.35;62.45
1480;BME280;732;51.698;4.886;2023-03-04T01:18:56;102809.44;;;2.36;62.19
1480;BME280;732;51.698;4.886;2023-03-04T01:21:24;102807.69;;;2.53;61.81
1480;BME280;732;51.698;4.886;2023-03-04T01:23:54;102804.09;;;2.54;62.43
1480;BME280;732;51.698;4.886;2023-03-04T01:26:23;102800.34;;;2.58;61.91
1480;BME280;732;51.698;4.886;2023-03-04T01:28:52;102806.28;;;2.79;61.22
1480;BME280;732;51.698;4.886;2023-03-04T01:31:20;102809.44;;;2.70;61.45
1480;BME280;732;51.698;4.886;2023-03-04T01:33:50;102783.16;;;2.49;61.55
1480;BME280;732;51.698;4.886;2023-03-04T01:36:20;102787.47;;;2.68;61.78
1480;BME280;732;51.698;4.886;2023-03-04T01:38:49;102794.19;;;2.57;61.99
1480;BME280;732;51.698;4.886;2023-03-04T01:41:23;102758.31;;;2.34;62.38
1480;BME280;732;51.698;4.886;2023-03-04T01:43:54;102747.66;;;2.36;61.88
1480;BME280;732;51.698;4.886;2023-03-04T01:46:23;102786.78;;;2.64;62.10
1480;BME280;732;51.698;4.886;2023-03-04T01:48:52;102755.34;;;2.40;62.35
1480;BME280;732;51.698;4.886;2023-03-04T01:51:22;102773.69;;;2.61;62.53
1480;BME280;732;51.698;4.886;2023-03-04T01:53:51;102753.75;;;2.54;61.83
1480;BME280;732;51.698;4.886;2023-03-04T01:56:23;102765.94;;;2.40;61.93
1480;BME280;732;51.698;4.886;2023-03-04T01:59:11;102752.31;;;2.48;62.35
1480;BME280;732;51.698;4.886;2023-03-04T02:01:43;102758.53;;;2.47;62.22
1480;BME280;732;51.698;4.886;2023-03-04T02:04:12;102734.72;;;2.63;61.35
1480;BME280;732;51.698;4.886;2023-03-04T02:06:43;102720.38;;;2.67;60.84
1480;BME280;732;51.698;4.886;2023-03-04T02:09:12;102722.91;;;2.53;61.94
1480;BME280;732;51.698;4.886;2023-03-04T02:11:42;102742.31;;;2.53;61.70
1480;BME280;732;51.698;4.886;2023-03-04T02:14:12;102726.16;;;2.58;62.09
1480;BME280;732;51.698;4.886;2023-03-04T02:16:41;102723.47;;;2.75;61.66
1480;BME280;732;51.698;4.886;2023-03-04T02:19:15;102744.25;;;2.99;61.07
1480;BME280;732;51.698;4.886;2023-03-04T02:21:48;102703.34;;;2.71;61.23
1480;BME280;732;51.698;4.886;2023-03-04T02:24:22;102751.41;;;2.81;60.99
1480;BME280;732;51.698;4.886;2023-03-04T02:26:54;102716.75;;;2.52;61.50
1480;BME280;732;51.698;4.886;2023-03-04T02:29:23;102719.41;;;2.52;61.53
1480;BME280;732;51.698;4.886;2023-03-04T02:31:52;102719.03;;;2.42;61.56
1480;BME280;732;51.698;4.886;2023-03-04T02:34:25;102725.16;;;2.60;61.71
1480;BME280;732;51.698;4.886;2023-03-04T02:36:56;102726.09;;;2.59;61.60
1480;BME280;732;51.698;4.886;2023-03-04T02:39:30;102733.38;;;2.72;61.26
1480;BME280;732;51.698;4.886;2023-03-04T02:42:02;102703.69;;;2.65;60.80
1480;BME280;732;51.698;4.886;2023-03-04T02:44:35;102724.28;;;2.60;61.96
1480;BME280;732;51.698;4.886;2023-03-04T02:47:07;102713.69;;;2.76;61.18
1480;BME280;732;51.698;4.886;2023-03-04T02:49:38;102723.34;;;2.61;61.40
1480;BME280;732;51.698;4.886;2023-03-04T02:52:09;102731.63;;;2.55;61.83
1480;BME280;732;51.698;4.886;2023-03-04T02:54:40;102715.69;;;2.39;62.69
1480;BME280;732;51.698;4.886;2023-03-04T02:57:12;102696.38;;;2.21;62.83
1480;BME280;732;51.698;4.886;2023-03-04T02:59:45;102694.78;;;2.50;61.91
1480;BME280;732;51.698;4.886;2023-03-04T03:02:17;102721.28;;;2.66;62.30
1480;BME280;732;51.698;4.886;2023-03-04T03:04:46;102719.34;;;2.70;61.39
1480;BME280;732;51.698;4.886;2023-03-04T03:07:17;102721.28;;;2.50;61.49
1480;BME280;732;51.698;4.886;2023-03-04T03:09:45;102681.34;;;2.37;61.71
1480;BME280;732;51.698;4.886;2023-03-04T03:12:15;102719.75;;;2.46;62.56
1480;BME280;732;51.698;4.886;2023-03-04T03:14:44;102717.75;;;2.34;62.51
1480;BME280;732;51.698;4.886;2023-03-04T03:17:16;102706.97;;;2.37;62.04
1480;BME280;732;51.698;4.886;2023-03-04T03:19:46;102714.34;;;2.47;62.05
1480;BME280;732;51.698;4.886;2023-03-04T03:22:15;102691.84;;;2.39;61.81
1480;BME280;732;51.698;4.886;2023-03-04T03:24:43;102717.09;;;2.46;60.88
1480;BME280;732;51.698;4.886;2023-03-04T03:27:11;102671.28;;;2.10;61.50
1480;BME280;732;51.698;4.886;2023-03-04T03:29:41;102716.16;;;2.47;61.87
1480;BME280;732;51.698;4.886;2023-03-04T03:32:09;102709.88;;;2.32;61.82
1480;BME280;732;51.698;4.886;2023-03-04T03:34:38;102695.78;;;2.31;61.60
1480;BME280;732;51.698;4.886;2023-03-04T03:37:07;102706.22;;;2.35;61.67
1480;BME280;732;51.698;4.886;2023-03-04T03:39:36;102708.97;;;2.33;61.57
1480;BME280;732;51.698;4.886;2023-03-04T03:42:04;102707.72;;;2.23;62.42
1480;BME280;732;51.698;4.886;2023-03-04T03:44:33;102706.78;;;2.24;62.25
1480;BME280;732;51.698;4.886;2023-03-04T03:47:03;102688.47;;;2.19;62.20
1480;BME280;732;51.698;4.886;2023-03-04T03:49:31;102704.78;;;2.45;62.06
1480;BME280;732;51.698;4.886;2023-03-04T03:52:00;102702.41;;;2.56;61.32
1480;BME280;732;51.698;4.886;2023-03-04T03:54:28;102700.28;;;2.63;61.07
1480;BME280;732;51.698;4.886;2023-03-04T03:56:56;102692.41;;;2.77;61.76
1480;BME280;732;51.698;4.886;2023-03-04T03:59:25;102698.03;;;2.55;61.15
1480;BME280;732;51.698;4.886;2023-03-04T04:01:53;102697.84;;;2.42;61.73
1480;BME280;732;51.698;4.886;2023-03-04T04:04:24;102701.88;;;2.50;61.81
1480;BME280;732;51.698;4.886;2023-03-04T04:06:52;102710.00;;;2.62;62.16
1480;BME280;732;51.698;4.886;2023-03-04T04:09:21;102706.34;;;2.81;61.70
1480;BME280;732;51.698;4.886;2023-03-04T04:11:49;102706.78;;;2.73;61.25
1480;BME280;732;51.698;4.886;2023-03-04T04:14:17;102713.94;;;2.71;61.00
1480;BME280;732;51.698;4.886;2023-03-04T04:16:46;102718.75;;;2.64;61.21
1480;BME280;732;51.698;4.886;2023-03-04T04:19:18;102677.53;;;2.59;61.68
1480;BME280;732;51.698;4.886;2023-03-04T04:21:48;102712.81;;;2.43;62.56
1480;BME280;732;51.698;4.886;2023-03-04T04:24:17;102698.28;;;2.67;62.03
1480;BME280;732;51.698;4.886;2023-03-04T04:26:45;102687.53;;;2.20;62.76
1480;BME280;732;51.698;4.886;2023-03-04T04:29:15;102677.03;;;2.19;62.62
1480;BME280;732;51.698;4.886;2023-03-04T04:31:44;102709.63;;;2.37;62.76
1480;BME280;732;51.698;4.886;2023-03-04T04:34:12;102720.47;;;2.32;63.24
1480;BME280;732;51.698;4.886;2023-03-04T04:36:41;102686.06;;;2.32;63.11
1480;BME280;732;51.698;4.886;2023-03-04T04:39:10;102683.81;;;2.24;62.56
1480;BME280;732;51.698;4.886;2023-03-04T04:41:41;102715.22;;;2.48;62.35
1480;BME280;732;51.698;4.886;2023-03-04T04:44:12;102714.59;;;2.43;62.16
1480;BME280;732;51.698;4.886;2023-03-04T04:46:41;102718.19;;;2.42;62.12
1480;BME280;732;51.698;4.886;2023-03-04T04:49:10;102709.44;;;2.24;61.98
1480;BME280;732;51.698;4.886;2023-03-04T04:51:38;102713.41;;;2.15;62.36
1480;BME280;732;51.698;4.886;2023-03-04T04:54:07;102715.06;;;2.18;63.30
1480;BME280;732;51.698;4.886;2023-03-04T04:56:37;102719.19;;;2.23;62.80
1480;BME280;732;51.698;4.886;2023-03-04T04:59:05;102711.16;;;2.25;62.76
1480;BME280;732;51.698;4.886;2023-03-04T05:01:34;102718.19;;;2.42;62.19
1480;BME280;732;51.698;4.886;2023-03-04T05:04:03;102720.78;;;2.59;61.27
1480;BME280;732;51.698;4.886;2023-03-04T05:06:32;102709.59;;;2.54;61.11
1480;BME280;732;51.698;4.886;2023-03-04T05:09:00;102697.06;;;2.40;61.23
1480;BME280;732;51.698;4.886;2023-03-04T05:11:29;102719.91;;;2.59;61.19
1480;BME280;732;51.698;4.886;2023-03-04T05:13:59;102718.13;;;2.43;62.17
1480;BME280;732;51.698;4.886;2023-03-04T05:16:27;102713.91;;;2.55;62.35
1480;BME280;732;51.698;4.886;2023-03-04T05:18:55;102714.47;;;2.62;61.64
1480;BME280;732;51.698;4.886;2023-03-04T05:21:24;102673.28;;;2.23;62.01
1480;BME280;732;51.698;4.886;2023-03-04T05:23:52;102715.28;;;2.46;62.69
1480;BME280;732;51.698;4.886;2023-03-04T05:26:20;102717.84;;;2.32;62.85
1480;BME280;732;51.698;4.886;2023-03-04T05:28:49;102693.63;;;2.22;62.80
1480;BME280;732;51.698;4.886;2023-03-04T05:31:19;102710.13;;;2.27;63.35
1480;BME280;732;51.698;4.886;2023-03-04T05:33:47;102716.41;;;2.42;62.79
1480;BME280;732;51.698;4.886;2023-03-04T05:36:15;102713.97;;;2.38;63.25
1480;BME280;732;51.698;4.886;2023-03-04T05:38:44;102721.69;;;2.42;63.21
1480;BME280;732;51.698;4.886;2023-03-04T05:41:12;102723.38;;;2.27;63.60
1480;BME280;732;51.698;4.886;2023-03-04T05:43:40;102726.94;;;2.26;63.93
1480;BME280;732;51.698;4.886;2023-03-04T05:46:13;102726.06;;;2.43;63.34
1480;BME280;732;51.698;4.886;2023-03-04T05:48:43;102721.38;;;2.48;63.81
1480;BME280;732;51.698;4.886;2023-03-04T05:51:12;102715.50;;;2.59;63.48
1480;BME280;732;51.698;4.886;2023-03-04T05:53:40;102722.00;;;2.70;63.17
1480;BME280;732;51.698;4.886;2023-03-04T05:56:11;102689.94;;;2.58;63.12
1480;BME280;732;51.698;4.886;2023-03-04T05:58:40;102733.53;;;2.69;63.22
1480;BME280;732;51.698;4.886;2023-03-04T06:01:09;102696.59;;;2.50;63.65
1480;BME280;732;51.698;4.886;2023-03-04T06:03:37;102736.41;;;2.48;64.57
1480;BME280;732;51.698;4.886;2023-03-04T06:06:07;102737.53;;;2.60;63.91
1480;BME280;732;51.698;4.886;2023-03-04T06:08:36;102738.00;;;2.84;63.33
1480;BME280;732;51.698;4.886;2023-03-04T06:11:05;102736.34;;;2.66;64.27
1480;BME280;732;51.698;4.886;2023-03-04T06:13:35;102706.91;;;2.38;64.74
1480;BME280;732;51.698;4.886;2023-03-04T06:16:05;102696.28;;;2.22;65.45
1480;BME280;732;51.698;4.886;2023-03-04T06:18:33;102722.53;;;2.27;66.22
1480;BME280;732;51.698;4.886;2023-03-04T06:21:02;102703.00;;;2.12;65.91
1480;BME280;732;51.698;4.886;2023-03-04T06:23:32;102729.78;;;2.23;66.05
1480;BME280;732;51.698;4.886;2023-03-04T06:26:00;102722.03;;;2.36;65.79
1480;BME280;732;51.698;4.886;2023-03-04T06:28:29;102722.88;;;2.37;65.69
1480;BME280;732;51.698;4.886;2023-03-04T06:30:57;102701.06;;;2.31;65.56
1480;BME280;732;51.698;4.886;2023-03-04T06:33:26;102717.22;;;2.60;64.67
1480;BME280;732;51.698;4.886;2023-03-04T06:35:55;102704.03;;;2.59;64.13
1480;BME280;732;51.698;4.886;2023-03-04T06:38:25;102721.03;;;2.55;64.48
1480;BME280;732;51.698;4.886;2023-03-04T06:40:55;102717.78;;;2.50;64.20
1480;BME280;732;51.698;4.886;2023-03-04T06:43:23;102729.59;;;2.60;64.07
1480;BME280;732;51.698;4.886;2023-03-04T06:45:52;102726.16;;;2.58;63.98
1480;BME280;732;51.698;4.886;2023-03-04T06:48:20;102726.09;;;2.75;63.73
1480;BME280;732;51.698;4.886;2023-03-04T06:50:48;102729.03;;;2.87;63.58
1480;BME280;732;51.698;4.886;2023-03-04T06:53:17;102736.34;;;2.82;63.00
1480;BME280;732;51.698;4.886;2023-03-04T06:55:46;102725.66;;;2.67;63.74
1480;BME280;732;51.698;4.886;2023-03-04T06:58:16;102707.47;;;2.27;64.13
1480;BME280;732;51.698;4.886;2023-03-04T07:00:45;102706.50;;;2.46;64.09
1480;BME280;732;51.698;4.886;2023-03-04T07:03:13;102745.34;;;2.63;64.01
1480;BME280;732;51.698;4.886;2023-03-04T07:05:42;102741.06;;;2.60;64.35
1480;BME280;732;51.698;4.886;2023-03-04T07:08:10;102732.97;;;2.46;64.06
1480;BME280;732;51.698;4.886;2023-03-04T07:10:39;102723.28;;;2.29;64.65
1480;BME280;732;51.698;4.886;2023-03-04T07:13:07;102751.72;;;2.25;65.37
1480;BME280;732;51.698;4.886;2023-03-04T07:15:38;102755.88;;;2.13;66.35
1480;BME280;732;51.698;4.886;2023-03-04T07:18:06;102753.03;;;2.34;66.36
1480;BME280;732;51.698;4.886;2023-03-04T07:20:35;102745.03;;;2.36;65.98
1480;BME280;732;51.698;4.886;2023-03-04T07:23:03;102740.41;;;2.06;66.84
1480;BME280;732;51.698;4.886;2023-03-04T07:25:32;102696.16;;;1.55;67.68
1480;BME280;732;51.698;4.886;2023-03-04T07:28:00;102719.66;;;1.79;67.96
1480;BME280;732;51.698;4.886;2023-03-04T07:30:29;102702.06;;;1.78;67.58
1480;BME280;732;51.698;4.886;2023-03-04T07:32:58;102773.16;;;2.21;67.32
1480;BME280;732;51.698;4.886;2023-03-04T07:35:27;102724.63;;;2.20;67.18
1480;BME280;732;51.698;4.886;2023-03-04T07:37:55;102767.97;;;2.69;66.60
1480;BME280;732;51.698;4.886;2023-03-04T07:40:23;102754.63;;;2.70;66.11
1480;BME280;732;51.698;4.886;2023-03-04T07:42:54;102751.28;;;2.67;65.54
1480;BME280;732;51.698;4.886;2023-03-04T07:45:25;102773.22;;;2.86;66.20
1480;BME280;732;51.698;4.886;2023-03-04T07:47:54;102749.34;;;2.86;65.50
1480;BME280;732;51.698;4.886;2023-03-04T07:50:23;102781.44;;;3.13;64.65
1480;BME280;732;51.698;4.886;2023-03-04T07:52:52;102783.16;;;3.15;65.47
1480;BME280;732;51.698;4.886;2023-03-04T07:55:20;102770.59;;;3.18;64.84
1480;BME280;732;51.698;4.886;2023-03-04T07:57:49;102782.47;;;3.43;64.69
1480;BME280;732;51.698;4.886;2023-03-04T08:00:18;102776.22;;;3.44;64.02
1480;BME280;732;51.698;4.886;2023-03-04T08:02:47;102783.59;;;3.69;63.90
1480;BME280;732;51.698;4.886;2023-03-04T08:05:16;102776.91;;;3.78;63.49
1480;BME280;732;51.698;4.886;2023-03-04T08:07:45;102788.19;;;4.12;62.82
1480;BME280;732;51.698;4.886;2023-03-04T08:10:14;102746.78;;;3.93;62.48
1480;BME280;732;51.698;4.886;2023-03-04T08:12:42;102791.44;;;4.32;62.25
1480;BME280;732;51.698;4.886;2023-03-04T08:15:11;102782.94;;;4.55;61.28
1480;BME280;732;51.698;4.886;2023-03-04T08:17:39;102775.22;;;4.36;61.09
1480;BME280;732;51.698;4.886;2023-03-04T08:20:10;102759.66;;;4.30;61.06
1480;BME280;732;51.698;4.886;2023-03-04T08:22:39;102802.03;;;4.77;60.21
1480;BME280;732;51.698;4.886;2023-03-04T08:25:09;102796.50;;;4.94;60.13
1480;BME280;732;51.698;4.886;2023-03-04T08:27:38;102797.16;;;4.83;59.88
1480;BME280;732;51.698;4.886;2023-03-04T08:30:08;102763.84;;;4.63;59.71
1480;BME280;732;51.698;4.886;2023-03-04T08:32:37;102799.38;;;4.77;60.00
1480;BME280;732;51.698;4.886;2023-03-04T08:35:05;102801.16;;;4.47;60.85
1480;BME280;732;51.698;4.886;2023-03-04T08:37:34;102800.25;;;4.32;61.31
1480;BME280;732;51.698;4.886;2023-03-04T08:40:03;102798.13;;;4.08;62.13
1480;BME280;732;51.698;4.886;2023-03-04T08:42:33;102791.41;;;4.03;62.06
1480;BME280;732;51.698;4.886;2023-03-04T08:45:01;102800.94;;;3.91;62.16
1480;BME280;732;51.698;4.886;2023-03-04T08:47:30;102788.44;;;3.93;62.65
1480;BME280;732;51.698;4.886;2023-03-04T08:49:58;102792.06;;;4.06;62.28
1480;BME280;732;51.698;4.886;2023-03-04T08:52:28;102760.00;;;3.95;61.91
1480;BME280;732;51.698;4.886;2023-03-04T08:54:57;102789.75;;;4.45;61.97
1480;BME280;732;51.698;4.886;2023-03-04T08:57:25;102784.66;;;4.56;61.19
1480;BME280;732;51.698;4.886;2023-03-04T08:59:55;102776.47;;;4.74;60.74
1480;BME280;732;51.698;4.886;2023-03-04T09:02:23;102779.97;;;4.89;60.14
1480;BME280;732;51.698;4.886;2023-03-04T09:04:52;102749.59;;;4.79;60.51
1480;BME280;732;51.698;4.886;2023-03-04T09:07:20;102744.50;;;5.03;59.43
1480;BME280;732;51.698;4.886;2023-03-04T09:09:49;102779.22;;;5.56;58.53
1480;BME280;732;51.698;4.886;2023-03-04T09:12:17;102748.69;;;5.34;58.61
1480;BME280;732;51.698;4.886;2023-03-04T09:14:46;102772.88;;;5.17;59.13
1480;BME280;732;51.698;4.886;2023-03-04T09:17:36;102755.31;;;4.58;60.54
1480;BME280;732;51.698;4.886;2023-03-04T09:20:06;102762.22;;;4.61;61.29
1480;BME280;732;51.698;4.886;2023-03-04T09:22:36;102781.44;;;4.51;61.28
1480;BME280;732;51.698;4.886;2023-03-04T09:25:06;102752.25;;;4.35;61.65
1480;BME280;732;51.698;4.886;2023-03-04T09:27:39;102772.78;;;4.77;61.39
1480;BME280;732;51.698;4.886;2023-03-04T09:30:09;102779.63;;;4.66;61.52
1480;BME280;732;51.698;4.886;2023-03-04T09:32:39;102759.28;;;4.51;61.70
1480;BME280;732;51.698;4.886;2023-03-04T09:35:08;102767.66;;;4.59;61.66
1480;BME280;732;51.698;4.886;2023-03-04T09:37:37;102776.53;;;4.87;61.52
1480;BME280;732;51.698;4.886;2023-03-04T09:40:11;102706.38;;;4.17;62.25
1480;BME280;732;51.698;4.886;2023-03-04T09:42:46;102751.66;;;4.45;62.25
1480;BME280;732;51.698;4.886;2023-03-04T09:45:19;102753.91;;;4.52;62.35
1480;BME280;732;51.698;4.886;2023-03-04T09:47:52;102741.81;;;4.18;62.73
1480;BME280;732;51.698;4.886;2023-03-04T09:50:21;102776.72;;;4.40;63.29
1480;BME280;732;51.698;4.886;2023-03-04T09:53:09;102771.53;;;4.53;62.79
1480;BME280;732;51.698;4.886;2023-03-04T09:55:44;102764.78;;;4.77;62.52
1480;BME280;732;51.698;4.886;2023-03-04T09:58:28;102742.41;;;4.66;61.82
1480;BME280;732;51.698;4.886;2023-03-04T10:01:07;102772.81;;;5.04;61.42
1480;BME280;732;51.698;4.886;2023-03-04T10:03:44;102764.81;;;5.18;60.94
1480;BME280;732;51.698;4.886;2023-03-04T10:06:17;102727.75;;;5.15;60.73
1480;BME280;732;51.698;4.886;2023-03-04T10:08:53;102756.34;;;5.12;60.39
1480;BME280;732;51.698;4.886;2023-03-04T10:11:27;102761.47;;;4.87;62.33
1480;BME280;732;51.698;4.886;2023-03-04T10:14:13;102775.22;;;4.94;62.77
1480;BME280;732;51.698;4.886;2023-03-04T10:16:48;102736.47;;;4.90;62.96
1480;BME280;732;51.698;4.886;2023-03-04T10:19:29;102766.06;;;5.40;62.81
1480;BME280;732;51.698;4.886;2023-03-04T10:21:59;102767.78;;;5.41;61.67
1480;BME280;732;51.698;4.886;2023-03-04T10:24:29;102763.50;;;5.38;61.42
1480;BME280;732;51.698;4.886;2023-03-04T10:27:04;102735.69;;;5.30;60.72
1480;BME280;732;51.698;4.886;2023-03-04T10:29:35;102764.22;;;5.68;60.60
1480;BME280;732;51.698;4.886;2023-03-04T10:32:04;102759.91;;;5.93;59.58
1480;BME280;732;51.698;4.886;2023-03-04T10:34:34;102763.66;;;6.16;59.14
1480;BME280;732;51.698;4.886;2023-03-04T10:37:05;102754.06;;;6.39;58.33
1480;BME280;732;51.698;4.886;2023-03-04T10:39:40;102716.00;;;6.24;58.16
1480;BME280;732;51.698;4.886;2023-03-04T10:42:26;102745.03;;;6.92;56.67
1480;BME280;732;51.698;4.886;2023-03-04T10:44:58;102686.16;;;6.45;56.30
1480;BME280;732;51.698;4.886;2023-03-04T10:47:30;102737.44;;;6.23;57.48
1480;BME280;732;51.698;4.886;2023-03-04T10:50:04;102752.78;;;5.53;60.56
1480;BME280;732;51.698;4.886;2023-03-04T10:52:37;102738.84;;;5.22;62.46
1480;BME280;732;51.698;4.886;2023-03-04T10:55:15;102751.50;;;5.18;64.33
1480;BME280;732;51.698;4.886;2023-03-04T10:57:48;102733.47;;;5.09;64.62
1480;BME280;732;51.698;4.886;2023-03-04T11:00:27;102730.00;;;5.21;65.22
1480;BME280;732;51.698;4.886;2023-03-04T11:03:23;102735.38;;;5.34;65.28
1480;BME280;732;51.698;4.886;2023-03-04T11:06:17;102730.50;;;5.14;65.37
1480;BME280;732;51.698;4.886;2023-03-04T11:08:54;102726.97;;;5.41;64.66
1480;BME280;732;51.698;4.886;2023-03-04T11:11:29;102703.88;;;5.41;64.49
1480;BME280;732;51.698;4.886;2023-03-04T11:14:07;102731.13;;;5.72;63.46
1480;BME280;732;51.698;4.886;2023-03-04T11:16:38;102729.94;;;5.89;63.18
1480;BME280;732;51.698;4.886;2023-03-04T11:19:14;102726.00;;;5.82;62.99
1480;BME280;732;51.698;4.886;2023-03-04T11:21:45;102722.44;;;5.55;63.13
1480;BME280;732;51.698;4.886;2023-03-04T11:24:20;102721.91;;;5.50;62.96
1480;BME280;732;51.698;4.886;2023-03-04T11:27:02;102687.03;;;5.00;64.17
1480;BME280;732;51.698;4.886;2023-03-04T11:29:37;102722.50;;;4.86;65.64
1480;BME280;732;51.698;4.886;2023-03-04T11:32:14;102723.34;;;5.01;65.79
1480;BME280;732;51.698;4.886;2023-03-04T11:34:50;102679.25;;;4.70;66.51
1480;BME280;732;51.698;4.886;2023-03-04T11:37:27;102687.78;;;4.75;66.24
1480;BME280;732;51.698;4.886;2023-03-04T11:40:03;102668.53;;;4.99;65.18
1480;BME280;732;51.698;4.886;2023-03-04T11:42:39;102665.31;;;5.34;64.70
1480;BME280;732;51.698;4.886;2023-03-04T11:45:12;102673.31;;;5.47;64.16
1480;BME280;732;51.698;4.886;2023-03-04T11:48:03;102664.56;;;5.32;64.72
1480;BME280;732;51.698;4.886;2023-03-04T11:50:44;102671.84;;;5.55;64.71
1480;BME280;732;51.698;4.886;2023-03-04T11:53:43;102661.75;;;5.86;64.79
1480;BME280;732;51.698;4.886;2023-03-04T11:56:29;102650.53;;;6.46;62.03
1480;BME280;732;51.698;4.886;2023-03-04T11:59:28;102666.91;;;6.52;60.40
1480;BME280;732;51.698;4.886;2023-03-04T12:02:16;102676.94;;;6.86;60.06
1480;BME280;732;51.698;4.886;2023-03-04T12:05:18;102666.78;;;6.67;59.05
1480;BME280;732;51.698;4.886;2023-03-04T12:11:05;102656.22;;;5.64;61.20
1480;BME280;732;51.698;4.886;2023-03-04T12:13:51;102667.06;;;5.61;61.28
1480;BME280;732;51.698;4.886;2023-03-04T12:17:09;102670.16;;;5.54;61.35
1480;BME280;732;51.698;4.886;2023-03-04T12:19:54;102632.44;;;5.35;62.11
1480;BME280;732;51.698;4.886;2023-03-04T12:22:33;102658.75;;;5.39;61.94
1480;BME280;732;51.698;4.886;2023-03-04T12:25:27;102643.75;;;5.90;61.05
1480;BME280;732;51.698;4.886;2023-03-04T12:28:23;102658.66;;;5.67;61.17
1480;BME280;732;51.698;4.886;2023-03-04T12:40:37;102611.31;;;5.06;64.11
1480;BME280;732;51.698;4.886;2023-03-04T12:43:42;102636.53;;;5.13;65.47
1480;BME280;732;51.698;4.886;2023-03-04T12:46:30;102623.94;;;5.02;65.83
1480;BME280;732;51.698;4.886;2023-03-04T12:49:36;102637.53;;;5.25;65.84
1480;BME280;732;51.698;4.886;2023-03-04T12:52:16;102633.38;;;5.34;65.58
1480;BME280;732;51.698;4.886;2023-03-04T12:54:54;102623.56;;;5.34;64.99
1480;BME280;732;51.698;4.886;2023-03-04T12:57:25;102595.91;;;5.37;63.38
1480;BME280;732;51.698;4.886;2023-03-04T13:00:07;102619.88;;;5.50;63.76
1480;BME280;732;51.698;4.886;2023-03-04T13:02:54;102594.75;;;5.67;62.87
1480;BME280;732;51.698;4.886;2023-03-04T13:05:49;102575.69;;;5.47;63.85
1480;BME280;732;51.698;4.886;2023-03-04T13:08:35;102585.81;;;5.42;65.91
1480;BME280;732;51.698;4.886;2023-03-04T13:11:49;102609.47;;;4.94;67.32
1480;BME280;732;51.698;4.886;2023-03-04T13:14:33;102584.63;;;4.53;68.54
1480;BME280;732;51.698;4.886;2023-03-04T13:17:39;102605.13;;;4.78;68.15
1480;BME280;732;51.698;4.886;2023-03-04T13:20:33;102581.81;;;4.96;67.41
1480;BME280;732;51.698;4.886;2023-03-04T13:23:04;102578.13;;;5.50;65.95
1480;BME280;732;51.698;4.886;2023-03-04T13:28:35;102600.84;;;6.19;63.07
1480;BME280;732;51.698;4.886;2023-03-04T13:31:18;102568.28;;;6.02;63.22
1480;BME280;732;51.698;4.886;2023-03-04T13:34:01;102539.34;;;5.85;63.32
1480;BME280;732;51.698;4.886;2023-03-04T13:36:53;102590.00;;;6.09;63.75
1480;BME280;732;51.698;4.886;2023-03-04T13:39:34;102557.66;;;5.77;63.92
1480;BME280;732;51.698;4.886;2023-03-04T13:42:37;102595.06;;;5.62;65.46
1480;BME280;732;51.698;4.886;2023-03-04T13:45:33;102595.50;;;5.56;64.96
1480;BME280;732;51.698;4.886;2023-03-04T13:48:05;102563.13;;;5.36;64.51
1480;BME280;732;51.698;4.886;2023-03-04T13:50:45;102486.66;;;4.87;64.64
1480;BME280;732;51.698;4.886;2023-03-04T13:53:38;102581.09;;;5.71;64.03
1480;BME280;732;51.698;4.886;2023-03-04T13:56:33;102555.03;;;5.25;64.12
1480;BME280;732;51.698;4.886;2023-03-04T13:59:23;102589.09;;;5.20;64.33
1480;BME280;732;51.698;4.886;2023-03-04T14:02:02;102586.63;;;5.17;65.02
1480;BME280;732;51.698;4.886;2023-03-04T14:04:41;102547.53;;;5.04;65.33
1480;BME280;732;51.698;4.886;2023-03-04T14:07:24;102570.47;;;5.59;65.01
1480;BME280;732;51.698;4.886;2023-03-04T14:09:57;102578.63;;;5.94;64.42
1480;BME280;732;51.698;4.886;2023-03-04T14:12:28;102550.25;;;6.06;63.93
1480;BME280;732;51.698;4.886;2023-03-04T14:14:59;102544.84;;;5.95;63.03
1480;BME280;732;51.698;4.886;2023-03-04T14:17:31;102539.84;;;5.90;63.29
1480;BME280;732;51.698;4.886;2023-03-04T14:20:03;102568.44;;;6.25;62.81